createdAt,value
2022-11-05T00:01:11.165Z,97459.09
2022-11-05T00:03:57.987Z,97468.50
2022-11-05T00:06:44.787Z,97471.48
2022-11-05T00:09:31.118Z,97474.02
2022-11-05T00:12:22.316Z,97478.58
2022-11-05T00:15:08.834Z,97479.23
2022-11-05T00:17:36.837Z,97475.69
2022-11-05T00:20:06.432Z,97479.20
2022-11-05T00:22:53.869Z,97479.30
2022-11-05T00:25:22.271Z,97486.04
2022-11-05T00:27:52.613Z,97489.19
2022-11-05T00:30:25.812Z,97496.95
2022-11-05T00:32:54.147Z,97502.96
2022-11-05T00:35:22.535Z,97507.56
2022-11-05T00:37:52.747Z,97507.64
2022-11-05T00:40:20.764Z,97509.39
2022-11-05T00:43:07.747Z,97504.68
2022-11-05T00:45:37.775Z,97504.60
2022-11-05T00:48:24.453Z,97510.05
2022-11-05T00:50:53.437Z,97513.45
2022-11-05T00:53:21.186Z,97514.19
2022-11-05T00:55:49.107Z,97514.87
2022-11-05T00:58:17.925Z,97518.39
2022-11-05T01:00:50.469Z,97517.48
2022-11-05T01:03:21.017Z,97513.85
2022-11-05T01:05:50.408Z,97504.98
2022-11-05T01:08:20.908Z,97505.67
2022-11-05T01:10:51.546Z,97509.42
2022-11-05T01:13:22.623Z,97514.33
2022-11-05T01:15:51.334Z,97516.34
2022-11-05T01:18:20.876Z,97514.29
2022-11-05T01:20:49.410Z,97517.45
2022-11-05T01:23:17.828Z,97511.79
2022-11-05T01:25:45.964Z,97511.20
2022-11-05T01:28:13.867Z,97508.41
2022-11-05T01:30:41.817Z,97509.94
2022-11-05T01:33:10.090Z,97510.17
2022-11-05T01:35:39.338Z,97516.02
2022-11-05T01:38:07.195Z,97524.44
2022-11-05T01:40:35.111Z,97535.11
2022-11-05T01:43:02.956Z,97544.09
2022-11-05T01:45:31.565Z,97539.52
2022-11-05T01:48:03.139Z,97539.98
2022-11-05T01:50:43.177Z,97539.83
2022-11-05T01:53:29.149Z,97543.83
2022-11-05T01:56:09.958Z,97543.45
2022-11-05T01:58:51.274Z,97546.01
2022-11-05T02:01:19.856Z,97543.82
2022-11-05T02:03:50.736Z,97548.52
2022-11-05T02:06:19.632Z,97547.83
2022-11-05T02:09:06.236Z,97547.27
2022-11-05T02:11:34.399Z,97558.53
2022-11-05T02:14:02.461Z,97571.55
2022-11-05T02:16:48.157Z,97580.09
2022-11-05T02:19:38.004Z,97585.13
2022-11-05T02:22:19.370Z,97594.61
2022-11-05T02:25:12.521Z,97599.04
2022-11-05T02:28:02.737Z,97611.87
2022-11-05T02:30:33.417Z,97606.02
2022-11-05T02:33:17.444Z,97605.80
2022-11-05T02:35:51.392Z,97611.91
2022-11-05T02:38:35.561Z,97610.46
2022-11-05T02:41:30.346Z,97615.95
2022-11-05T02:44:23.040Z,97615.55
2022-11-05T02:46:56.857Z,97608.34
2022-11-05T02:49:53.228Z,97616.17
2022-11-05T02:53:02.716Z,97627.77
2022-11-05T02:55:49.969Z,97624.01
2022-11-05T02:58:18.010Z,97623.54
2022-11-05T03:00:54.943Z,97630.23
2022-11-05T03:03:34.652Z,97639.53
2022-11-05T03:06:24.338Z,97636.04
2022-11-05T03:09:18.376Z,97635.45
2022-11-05T03:11:56.066Z,97636.27
2022-11-05T03:14:43.170Z,97643.17
2022-11-05T03:17:33.713Z,97652.16
2022-11-05T03:20:12.887Z,97661.89
2022-11-05T03:23:05.340Z,97661.93
2022-11-05T03:25:39.248Z,97658.98
2022-11-05T03:28:08.735Z,97666.50
2022-11-05T03:30:39.392Z,97668.66
2022-11-05T03:33:13.937Z,97669.55
2022-11-05T03:35:47.953Z,97674.31
2022-11-05T03:38:23.564Z,97666.73
2022-11-05T03:40:54.259Z,97669.88
2022-11-05T03:43:28.692Z,97678.75
2022-11-05T03:46:02.380Z,97686.65
2022-11-05T03:48:32.902Z,97688.77
2022-11-05T03:51:40.046Z,97698.06
2022-11-05T03:54:08.300Z,97697.35
2022-11-05T03:56:39.971Z,97695.48
2022-11-05T03:59:11.375Z,97692.27
2022-11-05T04:01:39.620Z,97685.64
2022-11-05T04:04:09.049Z,97693.86
2022-11-05T04:06:55.928Z,97704.08
2022-11-05T04:09:42.523Z,97707.89
2022-11-05T04:12:30.061Z,97709.79
2022-11-05T04:14:57.910Z,97717.69
2022-11-05T04:17:25.833Z,97720.48
2022-11-05T04:20:12.423Z,97717.23
2022-11-05T04:22:58.836Z,97710.05
2022-11-05T04:25:26.727Z,97712.11
2022-11-05T04:27:59.588Z,97711.16
2022-11-05T04:30:27.766Z,97713.63
2022-11-05T04:33:11.277Z,97717.25
2022-11-05T04:35:40.596Z,97722.39
2022-11-05T04:38:09.816Z,97722.55
2022-11-05T04:40:38.795Z,97722.12
2022-11-05T04:43:14.485Z,97722.82
2022-11-05T04:45:43.460Z,97726.81
2022-11-05T04:48:12.950Z,97726.29
2022-11-05T04:50:40.857Z,97726.88
2022-11-05T04:53:08.927Z,97731.10
2022-11-05T04:55:37.112Z,97735.63
2022-11-05T04:58:04.937Z,97735.71
2022-11-05T05:00:33.029Z,97737.02
2022-11-05T05:03:00.919Z,97739.48
2022-11-05T05:05:30.707Z,97746.52
2022-11-05T05:08:05.955Z,97744.60
2022-11-05T05:10:33.944Z,97743.42
2022-11-05T05:13:01.750Z,97749.67
2022-11-05T05:15:30.230Z,97754.22
2022-11-05T05:17:58.210Z,97755.91
2022-11-05T05:20:44.470Z,97758.31
2022-11-05T05:23:12.706Z,97760.58
2022-11-05T05:25:40.708Z,97759.78
2022-11-05T05:28:08.567Z,97766.04
2022-11-05T05:30:36.828Z,97772.63
2022-11-05T05:33:04.887Z,97767.67
2022-11-05T05:35:32.774Z,97770.84
2022-11-05T05:38:00.681Z,97777.90
2022-11-05T05:40:28.548Z,97771.77
2022-11-05T05:42:56.458Z,97776.65
2022-11-05T05:45:24.389Z,97777.34
2022-11-05T05:47:54.688Z,97791.11
2022-11-05T05:50:22.411Z,97796.67
2022-11-05T05:52:53.505Z,97791.38
2022-11-05T05:55:21.478Z,97793.36
2022-11-05T05:57:49.495Z,97797.84
2022-11-05T06:00:17.700Z,97799.66
2022-11-05T06:02:45.614Z,97803.31
2022-11-05T06:05:13.697Z,97804.08
2022-11-05T06:07:41.677Z,97808.73
2022-11-05T06:10:09.786Z,97816.31
2022-11-05T06:12:37.652Z,97824.13
2022-11-05T06:15:05.963Z,97823.29
2022-11-05T06:17:34.135Z,97826.86
2022-11-05T06:20:02.067Z,97826.99
2022-11-05T06:22:30.381Z,97833.40
2022-11-05T06:24:58.165Z,97839.86
2022-11-05T06:27:25.984Z,97851.84
2022-11-05T06:29:53.828Z,97857.95
2022-11-05T06:32:21.699Z,97867.82
2022-11-05T06:34:49.545Z,97873.27
2022-11-05T06:37:19.526Z,97875.27
2022-11-05T06:39:47.629Z,97876.73
2022-11-05T06:42:19.427Z,97882.30
2022-11-05T06:44:47.501Z,97884.98
2022-11-05T06:47:15.564Z,97888.97
2022-11-05T06:49:43.522Z,97893.65
2022-11-05T06:52:12.361Z,97908.33
2022-11-05T06:54:40.947Z,97912.58
2022-11-05T06:57:10.409Z,97915.38
2022-11-05T06:59:38.847Z,97923.62
2022-11-05T07:02:10.492Z,97926.23
2022-11-05T07:04:38.554Z,97932.23
2022-11-05T07:07:06.378Z,97936.26
2022-11-05T07:09:34.374Z,97934.08
2022-11-05T07:12:02.206Z,97932.10
2022-11-05T07:14:30.062Z,97936.08
2022-11-05T07:16:57.976Z,97943.52
2022-11-05T07:19:25.993Z,97947.49
2022-11-05T07:21:54.162Z,97945.13
2022-11-05T07:24:22.475Z,97947.02
2022-11-05T07:26:50.248Z,97951.40
2022-11-05T07:29:18.319Z,97959.05
2022-11-05T07:31:47.158Z,97956.90
2022-11-05T07:34:14.923Z,97960.66
2022-11-05T07:36:42.884Z,97964.33
2022-11-05T07:39:10.865Z,97962.70
2022-11-05T07:41:38.725Z,97964.10
2022-11-05T07:44:06.750Z,97967.70
2022-11-05T07:46:34.600Z,97976.05
2022-11-05T07:49:03.596Z,97979.07
2022-11-05T07:51:31.593Z,97982.27
2022-11-05T07:53:59.481Z,97982.94
2022-11-05T07:56:27.180Z,97985.73
2022-11-05T07:58:55.182Z,97989.52
2022-11-05T08:01:23.317Z,97983.85
2022-11-05T08:03:51.281Z,97981.08
2022-11-05T08:06:19.198Z,97982.84
2022-11-05T08:08:47.115Z,97975.89
2022-11-05T08:11:15.017Z,97975.92
2022-11-05T08:13:44.247Z,97974.75
2022-11-05T08:16:12.293Z,97979.50
2022-11-05T08:18:40.184Z,97978.75
2022-11-05T08:21:09.117Z,97978.90
2022-11-05T08:23:38.721Z,97979.54
2022-11-05T08:26:06.583Z,97983.02
2022-11-05T08:28:34.429Z,97989.91
2022-11-05T08:31:02.391Z,97989.14
2022-11-05T08:33:31.625Z,97999.59
2022-11-05T08:36:03.003Z,98004.96
2022-11-05T08:38:30.813Z,98012.11
2022-11-05T08:40:59.091Z,98009.95
2022-11-05T08:43:27.037Z,98020.95
2022-11-05T08:45:55.237Z,98022.41
2022-11-05T08:48:24.264Z,98023.20
2022-11-05T08:50:52.103Z,98021.86
2022-11-05T08:53:20.309Z,98027.91
2022-11-05T08:55:50.163Z,98029.30
2022-11-05T08:58:19.745Z,98032.19
2022-11-05T09:00:49.861Z,98036.39
2022-11-05T09:03:18.139Z,98033.60
2022-11-05T09:05:46.521Z,98033.21
2022-11-05T09:08:17.611Z,98030.08
2022-11-05T09:10:47.219Z,98025.49
2022-11-05T09:13:18.962Z,98027.80
2022-11-05T09:15:49.678Z,98026.66
2022-11-05T09:18:19.484Z,98026.36
2022-11-05T09:20:47.779Z,98026.36
2022-11-05T09:23:16.268Z,98033.67
2022-11-05T09:25:44.599Z,98032.30
2022-11-05T09:28:17.308Z,98038.41
2022-11-05T09:30:51.498Z,98038.71
2022-11-05T09:33:22.156Z,98040.08
2022-11-05T09:35:50.368Z,98045.14
2022-11-05T09:38:18.276Z,98045.61
2022-11-05T09:41:02.678Z,98048.23
2022-11-05T09:43:40.681Z,98049.98
2022-11-05T09:46:22.435Z,98053.23
2022-11-05T09:48:54.200Z,98054.06
2022-11-05T09:51:24.090Z,98058.84
2022-11-05T09:53:53.859Z,98058.04
2022-11-05T09:56:24.202Z,98058.66
2022-11-05T09:58:58.981Z,98059.20
2022-11-05T10:01:31.237Z,98065.83
2022-11-05T10:04:03.057Z,98066.56
2022-11-05T10:06:31.755Z,98072.24
2022-11-05T10:09:09.242Z,98073.63
2022-11-05T10:11:50.099Z,98075.48
2022-11-05T10:14:27.426Z,98078.36
2022-11-05T10:17:04.051Z,98080.65
2022-11-05T10:19:39.493Z,98076.78
2022-11-05T10:22:18.947Z,98075.44
2022-11-05T10:24:49.283Z,98082.98
2022-11-05T10:27:21.484Z,98085.14
2022-11-05T10:29:50.240Z,98087.24
2022-11-05T10:32:24.208Z,98092.95
2022-11-05T10:34:54.352Z,98097.78
2022-11-05T10:37:24.691Z,98101.45
2022-11-05T10:39:53.023Z,98101.23
2022-11-05T10:42:45.281Z,98100.27
2022-11-05T10:45:19.242Z,98097.31
2022-11-05T10:48:16.417Z,98095.39
2022-11-05T10:50:44.928Z,98091.13
2022-11-05T10:53:16.766Z,98091.34
2022-11-05T10:55:46.400Z,98090.73
2022-11-05T10:58:16.926Z,98096.23
2022-11-05T11:00:49.497Z,98094.94
2022-11-05T11:03:42.413Z,98097.95
2022-11-05T11:06:30.933Z,98105.92
2022-11-05T11:09:07.245Z,98104.13
2022-11-05T11:11:40.586Z,98108.33
2022-11-05T11:14:11.824Z,98109.54
2022-11-05T11:16:45.666Z,98118.23
2022-11-05T11:19:34.733Z,98117.77
2022-11-05T11:22:05.657Z,98116.96
2022-11-05T11:24:49.459Z,98117.48
2022-11-05T11:27:28.059Z,98119.02
2022-11-05T11:30:01.891Z,98122.50
2022-11-05T11:32:49.505Z,98125.74
2022-11-05T11:35:23.422Z,98123.70
2022-11-05T11:37:57.122Z,98129.42
2022-11-05T11:40:32.925Z,98130.59
2022-11-05T11:43:05.562Z,98129.70
2022-11-05T11:45:38.335Z,98132.85
2022-11-05T11:48:12.415Z,98133.23
2022-11-05T11:50:43.165Z,98131.58
2022-11-05T11:53:20.303Z,98135.65
2022-11-05T11:56:21.453Z,98138.50
2022-11-05T11:58:54.965Z,98137.00
2022-11-05T12:01:22.741Z,98139.17
2022-11-05T12:04:08.978Z,98134.08
2022-11-05T12:06:56.094Z,98134.83
2022-11-05T12:09:34.678Z,98133.83
2022-11-05T12:12:10.536Z,98138.63
2022-11-05T12:15:03.821Z,98142.92
2022-11-05T12:17:51.765Z,98138.85
2022-11-05T12:20:24.960Z,98156.26
2022-11-05T12:23:11.478Z,98160.55
2022-11-05T12:26:11.137Z,98162.23
2022-11-05T12:29:04.549Z,98161.95
2022-11-05T12:32:07.672Z,98163.45
2022-11-05T12:34:52.729Z,98167.20
2022-11-05T12:37:49.524Z,98170.34
2022-11-05T12:40:42.570Z,98169.89
2022-11-05T12:43:35.264Z,98173.55
2022-11-05T12:46:20.986Z,98178.43
2022-11-05T12:49:21.208Z,98183.34
2022-11-05T12:51:58.394Z,98186.80
2022-11-05T12:54:26.122Z,98193.69
2022-11-05T12:56:58.710Z,98192.96
2022-11-05T12:59:46.826Z,98190.05
2022-11-05T13:02:41.148Z,98190.55
2022-11-05T13:06:02.948Z,98194.56
2022-11-05T13:08:38.915Z,98193.08
2022-11-05T13:11:20.003Z,98199.02
2022-11-05T13:13:58.180Z,98206.52
2022-11-05T13:16:46.277Z,98212.99
2022-11-05T13:19:22.163Z,98215.61
2022-11-05T13:21:55.006Z,98223.45
2022-11-05T13:24:28.449Z,98230.70
2022-11-05T13:27:01.121Z,98228.32
2022-11-05T13:29:35.495Z,98229.32
2022-11-05T13:32:22.559Z,98233.23
2022-11-05T13:34:51.545Z,98240.45
2022-11-05T13:37:46.173Z,98244.85
2022-11-05T13:40:19.025Z,98247.63
2022-11-05T13:42:58.887Z,98251.21
2022-11-05T13:45:43.471Z,98248.71
2022-11-05T13:48:36.394Z,98252.19
2022-11-05T13:51:39.370Z,98247.95
2022-11-05T13:54:37.020Z,98246.55
2022-11-05T13:57:49.696Z,98250.09
2022-11-05T14:00:29.308Z,98249.96
2022-11-05T14:03:00.036Z,98250.15
2022-11-05T14:05:36.286Z,98253.48
2022-11-05T14:08:10.685Z,98261.52
2022-11-05T14:10:43.579Z,98257.88
2022-11-05T14:13:32.796Z,98259.45
2022-11-05T14:16:00.510Z,98265.50
2022-11-05T14:18:43.518Z,98275.55
2022-11-05T14:21:26.816Z,98286.34
2022-11-05T14:23:57.912Z,98290.26
2022-11-05T14:26:29.180Z,98303.86
2022-11-05T14:29:03.313Z,98313.25
2022-11-05T14:32:07.045Z,98313.55
2022-11-05T14:34:56.108Z,98319.77
2022-11-05T14:37:55.099Z,98319.93
2022-11-05T14:40:37.434Z,98320.88
2022-11-05T14:43:18.807Z,98327.52
2022-11-05T14:46:08.465Z,98329.81
2022-11-05T14:48:47.084Z,98332.67
2022-11-05T14:51:36.969Z,98334.09
2022-11-05T14:54:33.208Z,98338.17
2022-11-05T14:57:02.539Z,98346.86
2022-11-05T14:59:33.596Z,98342.13
2022-11-05T15:02:11.810Z,98336.61
2022-11-05T15:04:42.833Z,98340.95
2022-11-05T15:07:10.786Z,98351.82
2022-11-05T15:09:44.896Z,98354.83
2022-11-05T15:12:40.367Z,98356.73
2022-11-05T15:15:28.429Z,98363.95
2022-11-05T15:18:33.488Z,98370.77
2022-11-05T15:21:04.972Z,98367.83
2022-11-05T15:23:44.452Z,98368.24
2022-11-05T15:26:20.236Z,98372.86
2022-11-05T15:28:53.420Z,98374.17
2022-11-05T15:31:29.919Z,98381.09
2022-11-05T15:34:18.456Z,98379.80
2022-11-05T15:36:54.566Z,98384.26
2022-11-05T15:39:43.487Z,98384.58
2022-11-05T15:42:29.913Z,98386.02
2022-11-05T15:44:58.756Z,98395.27
2022-11-05T15:47:34.588Z,98395.70
2022-11-05T15:50:14.097Z,98402.05
2022-11-05T15:52:51.691Z,98408.73
2022-11-05T15:55:24.445Z,98405.04
2022-11-05T15:57:52.379Z,98408.61
2022-11-05T16:00:23.792Z,98410.08
2022-11-05T16:02:54.303Z,98409.42
2022-11-05T16:05:23.874Z,98406.95
2022-11-05T16:07:51.983Z,98413.50
2022-11-05T16:10:26.580Z,98416.27
2022-11-05T16:12:54.457Z,98412.64
2022-11-05T16:15:24.187Z,98413.46
2022-11-05T16:18:00.545Z,98416.95
2022-11-05T16:20:34.662Z,98420.63
2022-11-05T16:23:05.575Z,98420.83
2022-11-05T16:25:42.593Z,98420.88
2022-11-05T16:28:24.259Z,98425.29
2022-11-05T16:30:58.732Z,98428.38
2022-11-05T16:33:35.350Z,98428.23
2022-11-05T16:36:03.415Z,98430.46
2022-11-05T16:38:31.183Z,98434.71
2022-11-05T16:41:00.392Z,98442.29
2022-11-05T16:43:28.194Z,98442.81
2022-11-05T16:45:59.303Z,98445.14
2022-11-05T16:48:27.701Z,98455.54
2022-11-05T16:50:55.601Z,98457.41
2022-11-05T16:53:23.472Z,98462.52
2022-11-05T16:55:52.562Z,98465.69
2022-11-05T16:58:24.472Z,98469.02
2022-11-05T17:01:02.103Z,98471.75
2022-11-05T17:03:30.326Z,98470.44
2022-11-05T17:05:58.276Z,98469.08
2022-11-05T17:08:26.284Z,98474.61
2022-11-05T17:10:54.239Z,98477.49
2022-11-05T17:13:22.055Z,98475.48
2022-11-05T17:15:51.300Z,98476.51
2022-11-05T17:18:19.672Z,98475.02
2022-11-05T17:20:53.185Z,98476.27
2022-11-05T17:23:24.140Z,98477.39
2022-11-05T17:25:54.617Z,98475.98
2022-11-05T17:28:23.736Z,98478.85
2022-11-05T17:30:54.413Z,98477.48
2022-11-05T17:33:23.450Z,98476.85
2022-11-05T17:35:52.875Z,98478.32
2022-11-05T17:38:23.383Z,98478.35
2022-11-05T17:40:52.320Z,98478.10
2022-11-05T17:43:21.156Z,98481.86
2022-11-05T17:45:52.092Z,98483.42
2022-11-05T17:48:20.705Z,98480.55
2022-11-05T17:50:50.562Z,98484.02
2022-11-05T17:53:19.682Z,98486.70
2022-11-05T17:55:48.485Z,98489.40
2022-11-05T17:58:16.427Z,98491.88
2022-11-05T18:00:46.262Z,98492.25
2022-11-05T18:03:15.059Z,98499.85
2022-11-05T18:05:43.462Z,98501.83
2022-11-05T18:08:12.672Z,98507.09
2022-11-05T18:10:42.502Z,98508.34
2022-11-05T18:13:11.147Z,98506.14
2022-11-05T18:15:41.502Z,98512.29
2022-11-05T18:18:09.546Z,98511.10
2022-11-05T18:20:37.655Z,98508.27
2022-11-05T18:23:05.774Z,98512.42
2022-11-05T18:25:34.839Z,98521.08
2022-11-05T18:28:03.281Z,98521.53
2022-11-05T18:30:31.382Z,98530.20
2022-11-05T18:32:59.327Z,98526.62
2022-11-05T18:35:27.219Z,98529.00
2022-11-05T18:37:55.214Z,98525.64
2022-11-05T18:40:23.071Z,98527.86
2022-11-05T18:42:51.065Z,98522.52
2022-11-05T18:45:19.198Z,98527.73
2022-11-05T18:47:47.234Z,98529.06
2022-11-05T18:50:15.740Z,98531.34
2022-11-05T18:52:44.244Z,98534.11
2022-11-05T18:55:12.357Z,98539.61
2022-11-05T18:57:40.397Z,98540.45
2022-11-05T19:00:09.209Z,98545.68
2022-11-05T19:02:37.548Z,98553.89
2022-11-05T19:05:28.128Z,98554.67
2022-11-05T19:07:54.390Z,98548.78
2022-11-05T19:10:22.523Z,98545.98
2022-11-05T19:12:50.405Z,98550.90
2022-11-05T19:15:18.577Z,98556.80
2022-11-05T19:17:46.733Z,98563.34
2022-11-05T19:20:15.056Z,98561.98
2022-11-05T19:22:43.037Z,98563.05
2022-11-05T19:25:11.038Z,98570.88
2022-11-05T19:27:39.436Z,98571.69
2022-11-05T19:30:08.008Z,98574.00
2022-11-05T19:32:36.017Z,98577.66
2022-11-05T19:35:04.317Z,98579.88
2022-11-05T19:37:32.430Z,98577.64
2022-11-05T19:40:00.590Z,98593.30
2022-11-05T19:42:28.607Z,98595.15
2022-11-05T19:44:56.969Z,98598.80
2022-11-05T19:47:28.202Z,98601.92
2022-11-05T19:49:57.179Z,98611.36
2022-11-05T19:52:24.953Z,98611.68
2022-11-05T19:54:52.867Z,98611.46
2022-11-05T19:57:21.058Z,98613.98
2022-11-05T19:59:50.628Z,98612.82
2022-11-05T20:02:18.726Z,98614.48
2022-11-05T20:04:47.062Z,98617.00
2022-11-05T20:07:16.138Z,98620.14
2022-11-05T20:09:44.242Z,98621.05
2022-11-05T20:12:12.218Z,98626.95
2022-11-05T20:14:40.077Z,98631.06
2022-11-05T20:17:08.010Z,98638.00
2022-11-05T20:19:36.068Z,98637.62
2022-11-05T20:22:04.470Z,98641.73
2022-11-05T20:24:32.498Z,98638.70
2022-11-05T20:27:00.635Z,98644.05
2022-11-05T20:29:34.998Z,98646.39
2022-11-05T20:32:04.615Z,98642.66
2022-11-05T20:34:35.169Z,98648.62
2022-11-05T20:37:03.055Z,98645.67
2022-11-05T20:39:31.322Z,98649.04
2022-11-05T20:42:00.696Z,98651.02
2022-11-05T20:44:29.118Z,98647.05
2022-11-05T20:46:57.196Z,98654.15
2022-11-05T20:49:25.964Z,98660.85
2022-11-05T20:51:55.027Z,98657.73
2022-11-05T20:54:23.650Z,98662.85
2022-11-05T20:56:51.518Z,98663.86
2022-11-05T20:59:19.860Z,98670.60
2022-11-05T21:01:47.903Z,98675.77
2022-11-05T21:04:15.899Z,98678.55
2022-11-05T21:06:43.840Z,98680.67
2022-11-05T21:09:12.147Z,98681.68
2022-11-05T21:11:58.560Z,98684.23
2022-11-05T21:14:26.506Z,98682.09
2022-11-05T21:16:54.494Z,98678.14
2022-11-05T21:19:24.091Z,98679.19
2022-11-05T21:21:52.080Z,98676.23
2022-11-05T21:24:20.221Z,98676.13
2022-11-05T21:26:50.009Z,98674.73
2022-11-05T21:29:18.499Z,98675.40
2022-11-05T21:31:46.985Z,98674.13
2022-11-05T21:34:15.831Z,98675.48
2022-11-05T21:36:44.006Z,98678.48
2022-11-05T21:39:13.647Z,98680.64
2022-11-05T21:41:42.825Z,98682.48
2022-11-05T21:44:10.692Z,98682.02
2022-11-05T21:46:38.620Z,98680.65
2022-11-05T21:49:06.619Z,98678.89
2022-11-05T21:51:52.959Z,98678.50
2022-11-05T21:54:39.456Z,98677.05
2022-11-05T21:57:31.773Z,98679.21
2022-11-05T22:00:01.591Z,98676.60
2022-11-05T22:02:33.378Z,98677.52
2022-11-05T22:05:03.726Z,98677.91
2022-11-05T22:07:36.513Z,98678.48
2022-11-05T22:10:06.214Z,98685.77
2022-11-05T22:12:34.198Z,98689.67
2022-11-05T22:15:02.412Z,98687.37
2022-11-05T22:17:30.339Z,98682.02
2022-11-05T22:19:58.612Z,98689.94
2022-11-05T22:22:26.671Z,98692.48
2022-11-05T22:24:54.579Z,98691.89
2022-11-05T22:27:22.556Z,98692.85
2022-11-05T22:29:50.477Z,98693.09
2022-11-05T22:32:18.448Z,98692.20
2022-11-05T22:34:48.696Z,98693.95
2022-11-05T22:37:16.688Z,98691.10
2022-11-05T22:39:44.634Z,98692.95
2022-11-05T22:42:12.603Z,98690.58
2022-11-05T22:44:40.653Z,98689.54
2022-11-05T22:47:08.720Z,98690.20
2022-11-05T22:49:36.667Z,98683.01
2022-11-05T22:52:04.834Z,98686.92
2022-11-05T22:54:37.881Z,98688.45
2022-11-05T22:57:07.087Z,98689.63
2022-11-05T22:59:35.048Z,98690.23
2022-11-05T23:02:09.268Z,98695.07
2022-11-05T23:04:38.785Z,98691.89
2022-11-05T23:07:27.939Z,98697.70
2022-11-05T23:10:14.687Z,98692.71
2022-11-05T23:12:44.475Z,98693.12
2022-11-05T23:15:32.671Z,98698.25
2022-11-05T23:18:19.283Z,98697.11
2022-11-05T23:21:05.943Z,98697.77
2022-11-05T23:23:52.934Z,98695.29
2022-11-05T23:26:39.696Z,98695.09
2022-11-05T23:29:07.550Z,98702.83
2022-11-05T23:31:54.022Z,98709.47
2022-11-05T23:34:21.939Z,98705.13
2022-11-05T23:37:08.779Z,98706.05
2022-11-05T23:39:42.209Z,98712.11
2022-11-05T23:42:29.966Z,98711.77
2022-11-05T23:45:17.283Z,98714.34
2022-11-05T23:48:04.329Z,98715.02
2022-11-05T23:50:37.159Z,98712.53
2022-11-05T23:53:08.183Z,98713.58
2022-11-05T23:55:36.457Z,98713.73
2022-11-05T23:58:04.330Z,98711.66
